THY7BK LTFM-LTAC
Flight info
| Callsign | THY7BK |
|---|---|
| Flight time | 0h 47m |
| Altitude | 27000 |
| Route | VICEN T380 ASMAP L333 LATGA |
| Aircraft | A320/M-SDE3FGHIRWY/LB1 |
Departure
| Time | 2026-05-04 21:02 |
|---|---|
| Airport | İstanbul Airport (LTFM) |
Arrival
| Time | 2026-05-04 21:50 |
|---|---|
| Airport | Esenboğa International Airport (LTAC) |
| Time | Latitude | Longitude | Altitude | Speed | Heading |
|---|---|---|---|---|---|
| 2026-05-04 20:23 | 41.26642 | 28.73434 | 334 ft | 0 kts | 71° |
| 2026-05-04 20:47 | 41.26638 | 28.73418 | 331 ft | 4 kts | 73° |
| 2026-05-04 20:48 | 41.26632 | 28.73383 | 331 ft | 4 kts | 86° |
| 2026-05-04 20:48 | 41.26635 | 28.73350 | 331 ft | 4 kts | 120° |
| 2026-05-04 20:48 | 41.26647 | 28.73334 | 331 ft | 1 kts | 164° |
| 2026-05-04 20:48 | 41.26650 | 28.73333 | 334 ft | 0 kts | 164° |
| 2026-05-04 20:56 | 41.26645 | 28.73334 | 334 ft | 2 kts | 168° |
| 2026-05-04 20:56 | 41.26628 | 28.73330 | 329 ft | 3 kts | 197° |
| 2026-05-04 20:56 | 41.26608 | 28.73302 | 333 ft | 5 kts | 239° |
| 2026-05-04 20:57 | 41.26590 | 28.73258 | 334 ft | 0 kts | 239° |
| 2026-05-04 20:57 | 41.26590 | 28.73254 | 334 ft | 1 kts | 256° |
| 2026-05-04 20:57 | 41.26592 | 28.73217 | 334 ft | 7 kts | 277° |
| 2026-05-04 20:57 | 41.26577 | 28.73139 | 332 ft | 11 kts | 228° |
| 2026-05-04 20:58 | 41.26483 | 28.73115 | 329 ft | 17 kts | 179° |
| 2026-05-04 20:58 | 41.26361 | 28.73118 | 330 ft | 18 kts | 179° |
| 2026-05-04 20:58 | 41.26251 | 28.73116 | 332 ft | 11 kts | 194° |
| 2026-05-04 20:58 | 41.26217 | 28.73023 | 333 ft | 13 kts | 269° |
| 2026-05-04 20:59 | 41.26215 | 28.72892 | 334 ft | 15 kts | 270° |
| 2026-05-04 20:59 | 41.26212 | 28.72741 | 334 ft | 17 kts | 268° |
| 2026-05-04 20:59 | 41.26212 | 28.72574 | 334 ft | 17 kts | 281° |
| 2026-05-04 20:59 | 41.26269 | 28.72523 | 334 ft | 0 kts | 355° |
| 2026-05-04 21:01 | 41.26274 | 28.72523 | 329 ft | 2 kts | 359° |
| 2026-05-04 21:01 | 41.26275 | 28.72523 | 330 ft | 0 kts | 359° |
| 2026-05-04 21:01 | 41.26286 | 28.72523 | 330 ft | 14 kts | 359° |
| 2026-05-04 21:02 | 41.26624 | 28.72514 | 332 ft | 82 kts | 359° |
| 2026-05-04 21:02 | 41.27386 | 28.72498 | 333 ft | 134 kts | 359° |
| 2026-05-04 21:02 | 41.28449 | 28.72473 | 518 ft | 161 kts | 360° |
| 2026-05-04 21:02 | 41.29580 | 28.72491 | 1136 ft | 166 kts | 360° |
| 2026-05-04 21:03 | 41.30744 | 28.72551 | 1819 ft | 169 kts | 359° |
| 2026-05-04 21:03 | 41.31934 | 28.72581 | 2398 ft | 172 kts | 358° |
| 2026-05-04 21:03 | 41.33180 | 28.72566 | 2763 ft | 189 kts | 0° |
| 2026-05-04 21:03 | 41.34582 | 28.72557 | 3056 ft | 214 kts | 1° |
| 2026-05-04 21:04 | 41.36149 | 28.72551 | 3522 ft | 234 kts | 0° |
| 2026-05-04 21:04 | 41.37729 | 28.71980 | 4332 ft | 245 kts | 329° |
| 2026-05-04 21:04 | 41.38847 | 28.70189 | 4870 ft | 263 kts | 298° |
| 2026-05-04 21:04 | 41.39104 | 28.67710 | 5491 ft | 279 kts | 274° |
| 2026-05-04 21:05 | 41.38905 | 28.65119 | 6419 ft | 284 kts | 269° |
| 2026-05-04 21:05 | 41.38607 | 28.62506 | 7224 ft | 287 kts | 268° |
| 2026-05-04 21:05 | 41.38273 | 28.59860 | 8024 ft | 295 kts | 259° |
| 2026-05-04 21:05 | 41.37269 | 28.57409 | 8784 ft | 312 kts | 232° |
| 2026-05-04 21:06 | 41.35523 | 28.55652 | 9538 ft | 322 kts | 203° |
| 2026-05-04 21:06 | 41.33334 | 28.55098 | 10232 ft | 324 kts | 175° |
| 2026-05-04 21:06 | 41.31007 | 28.55304 | 10493 ft | 346 kts | 174° |
| 2026-05-04 21:06 | 41.28534 | 28.55580 | 10664 ft | 368 kts | 169° |
| 2026-05-04 21:07 | 41.25976 | 28.56357 | 10862 ft | 383 kts | 158° |
| 2026-05-04 21:07 | 41.23535 | 28.57807 | 11376 ft | 386 kts | 146° |
| 2026-05-04 21:07 | 41.21357 | 28.59868 | 11983 ft | 385 kts | 134° |
| 2026-05-04 21:07 | 41.19425 | 28.62323 | 12621 ft | 386 kts | 131° |
| 2026-05-04 21:08 | 41.17485 | 28.64827 | 13273 ft | 390 kts | 131° |
| 2026-05-04 21:08 | 41.15526 | 28.67343 | 13939 ft | 393 kts | 131° |
| 2026-05-04 21:08 | 41.13561 | 28.69873 | 14518 ft | 395 kts | 128° |
| 2026-05-04 21:08 | 41.11824 | 28.72676 | 15043 ft | 392 kts | 118° |
| 2026-05-04 21:09 | 41.10337 | 28.75698 | 15617 ft | 393 kts | 117° |
| 2026-05-04 21:09 | 41.08839 | 28.78755 | 16164 ft | 396 kts | 117° |
| 2026-05-04 21:09 | 41.07336 | 28.81822 | 16726 ft | 398 kts | 117° |
| 2026-05-04 21:09 | 41.05821 | 28.84908 | 17276 ft | 401 kts | 117° |
| 2026-05-04 21:10 | 41.04283 | 28.88028 | 17828 ft | 405 kts | 117° |
| 2026-05-04 21:10 | 41.02754 | 28.91109 | 18363 ft | 408 kts | 118° |
| 2026-05-04 21:10 | 41.00937 | 28.94063 | 18840 ft | 419 kts | 128° |
| 2026-05-04 21:10 | 40.98844 | 28.96797 | 19324 ft | 424 kts | 129° |
| 2026-05-04 21:11 | 40.96730 | 28.99541 | 19773 ft | 428 kts | 129° |
| 2026-05-04 21:11 | 40.94595 | 29.02315 | 20240 ft | 431 kts | 129° |
| 2026-05-04 21:11 | 40.92447 | 29.05106 | 20687 ft | 434 kts | 129° |
| 2026-05-04 21:11 | 40.90288 | 29.07912 | 21120 ft | 437 kts | 129° |
| 2026-05-04 21:12 | 40.88109 | 29.10743 | 21555 ft | 440 kts | 128° |
| 2026-05-04 21:12 | 40.86130 | 29.13788 | 21975 ft | 435 kts | 119° |
| 2026-05-04 21:12 | 40.84552 | 29.17161 | 22387 ft | 430 kts | 110° |
| 2026-05-04 21:12 | 40.83403 | 29.20779 | 22795 ft | 424 kts | 101° |
| 2026-05-04 21:13 | 40.82632 | 29.24519 | 23192 ft | 423 kts | 97° |
| 2026-05-04 21:13 | 40.81897 | 29.28294 | 23650 ft | 426 kts | 97° |
| 2026-05-04 21:13 | 40.81147 | 29.32086 | 23989 ft | 428 kts | 98° |
| 2026-05-04 21:13 | 40.80386 | 29.35903 | 24326 ft | 430 kts | 98° |
| 2026-05-04 21:14 | 40.79621 | 29.39725 | 24657 ft | 432 kts | 98° |
| 2026-05-04 21:14 | 40.78850 | 29.43564 | 24989 ft | 434 kts | 98° |
| 2026-05-04 21:14 | 40.78073 | 29.47426 | 25313 ft | 436 kts | 98° |
| 2026-05-04 21:14 | 40.77294 | 29.51299 | 25641 ft | 438 kts | 98° |
| 2026-05-04 21:15 | 40.76512 | 29.55196 | 25993 ft | 440 kts | 98° |
| 2026-05-04 21:15 | 40.75992 | 29.57788 | 26228 ft | 441 kts | 98° |
| 2026-05-04 21:15 | 40.75196 | 29.61757 | 26569 ft | 443 kts | 98° |
| 2026-05-04 21:15 | 40.74419 | 29.65628 | 26932 ft | 443 kts | 98° |
| 2026-05-04 21:16 | 40.73704 | 29.69623 | 27037 ft | 440 kts | 92° |
| 2026-05-04 21:16 | 40.73392 | 29.73568 | 27056 ft | 437 kts | 85° |
| 2026-05-04 21:16 | 40.73320 | 29.77571 | 27053 ft | 437 kts | 85° |
| 2026-05-04 21:16 | 40.73250 | 29.81583 | 27053 ft | 438 kts | 85° |
| 2026-05-04 21:17 | 40.73178 | 29.85591 | 27063 ft | 437 kts | 85° |
| 2026-05-04 21:17 | 40.73103 | 29.89592 | 27050 ft | 436 kts | 85° |
| 2026-05-04 21:17 | 40.73024 | 29.93593 | 27052 ft | 436 kts | 85° |
| 2026-05-04 21:17 | 40.72945 | 29.97586 | 27055 ft | 436 kts | 85° |
| 2026-05-04 21:18 | 40.72868 | 30.01588 | 27054 ft | 436 kts | 85° |
| 2026-05-04 21:18 | 40.72659 | 30.05593 | 27054 ft | 442 kts | 91° |
| 2026-05-04 21:18 | 40.71983 | 30.09576 | 27052 ft | 450 kts | 100° |
| 2026-05-04 21:18 | 40.70955 | 30.13502 | 27087 ft | 452 kts | 102° |
| 2026-05-04 21:19 | 40.69916 | 30.17417 | 27077 ft | 453 kts | 102° |
| 2026-05-04 21:19 | 40.68880 | 30.21329 | 27068 ft | 453 kts | 102° |
| 2026-05-04 21:19 | 40.67844 | 30.25244 | 27063 ft | 453 kts | 102° |
| 2026-05-04 21:19 | 40.66876 | 30.29175 | 27057 ft | 448 kts | 97° |
| 2026-05-04 21:20 | 40.66314 | 30.33173 | 27055 ft | 440 kts | 89° |
| 2026-05-04 21:20 | 40.66000 | 30.37176 | 27042 ft | 439 kts | 89° |
| 2026-05-04 21:20 | 40.65675 | 30.41177 | 27073 ft | 439 kts | 89° |
| 2026-05-04 21:20 | 40.65346 | 30.45180 | 27051 ft | 440 kts | 89° |
| 2026-05-04 21:21 | 40.65012 | 30.49191 | 27043 ft | 441 kts | 89° |
| 2026-05-04 21:21 | 40.64674 | 30.53207 | 27032 ft | 441 kts | 89° |
| 2026-05-04 21:21 | 40.64333 | 30.57214 | 27030 ft | 441 kts | 89° |
| 2026-05-04 21:21 | 40.63988 | 30.61223 | 27023 ft | 441 kts | 89° |
| 2026-05-04 21:22 | 40.63639 | 30.65232 | 27021 ft | 441 kts | 89° |
| 2026-05-04 21:22 | 40.63291 | 30.69243 | 27020 ft | 441 kts | 90° |
| 2026-05-04 21:22 | 40.62700 | 30.73246 | 27020 ft | 450 kts | 98° |
| 2026-05-04 21:22 | 40.61869 | 30.77212 | 27018 ft | 450 kts | 98° |
| 2026-05-04 21:23 | 40.61027 | 30.81187 | 27018 ft | 450 kts | 98° |
| 2026-05-04 21:23 | 40.60187 | 30.85143 | 27014 ft | 450 kts | 98° |
| 2026-05-04 21:23 | 40.59342 | 30.89111 | 27015 ft | 450 kts | 98° |
| 2026-05-04 21:23 | 40.58496 | 30.93080 | 27020 ft | 450 kts | 98° |
| 2026-05-04 21:24 | 40.57652 | 30.97042 | 27053 ft | 451 kts | 98° |
| 2026-05-04 21:24 | 40.56811 | 31.01012 | 27049 ft | 451 kts | 98° |
| 2026-05-04 21:24 | 40.55969 | 31.04990 | 27044 ft | 451 kts | 98° |
| 2026-05-04 21:24 | 40.55126 | 31.08961 | 27032 ft | 451 kts | 98° |
| 2026-05-04 21:25 | 40.54278 | 31.12925 | 27024 ft | 450 kts | 98° |
| 2026-05-04 21:25 | 40.53426 | 31.16875 | 27021 ft | 450 kts | 98° |
| 2026-05-04 21:25 | 40.52571 | 31.20840 | 27014 ft | 450 kts | 98° |
| 2026-05-04 21:25 | 40.51726 | 31.24748 | 27060 ft | 450 kts | 98° |
| 2026-05-04 21:26 | 40.50871 | 31.28706 | 27053 ft | 450 kts | 98° |
| 2026-05-04 21:26 | 40.50014 | 31.32664 | 27038 ft | 450 kts | 98° |
| 2026-05-04 21:26 | 40.49157 | 31.36620 | 27028 ft | 450 kts | 98° |
| 2026-05-04 21:26 | 40.48297 | 31.40569 | 27022 ft | 449 kts | 98° |
| 2026-05-04 21:27 | 40.47436 | 31.44499 | 27010 ft | 448 kts | 98° |
| 2026-05-04 21:27 | 40.46576 | 31.48435 | 27011 ft | 448 kts | 98° |
| 2026-05-04 21:27 | 40.45718 | 31.52370 | 27009 ft | 448 kts | 98° |
| 2026-05-04 21:27 | 40.44861 | 31.56303 | 27041 ft | 448 kts | 98° |
| 2026-05-04 21:28 | 40.44006 | 31.60229 | 27028 ft | 448 kts | 98° |
| 2026-05-04 21:28 | 40.43148 | 31.64161 | 27024 ft | 448 kts | 98° |
| 2026-05-04 21:28 | 40.42288 | 31.68088 | 27008 ft | 447 kts | 98° |
| 2026-05-04 21:28 | 40.41428 | 31.72007 | 27001 ft | 447 kts | 98° |
| 2026-05-04 21:29 | 40.40561 | 31.75928 | 26999 ft | 447 kts | 98° |
| 2026-05-04 21:29 | 40.39691 | 31.79844 | 26985 ft | 447 kts | 98° |
| 2026-05-04 21:29 | 40.38821 | 31.83763 | 27020 ft | 447 kts | 99° |
| 2026-05-04 21:29 | 40.37973 | 31.87674 | 27015 ft | 444 kts | 96° |
| 2026-05-04 21:30 | 40.37490 | 31.91629 | 27008 ft | 435 kts | 87° |
| 2026-05-04 21:30 | 40.37494 | 31.95549 | 26992 ft | 426 kts | 78° |
| 2026-05-04 21:30 | 40.37941 | 31.99349 | 26975 ft | 418 kts | 70° |
| 2026-05-04 21:30 | 40.38809 | 32.02953 | 26972 ft | 412 kts | 63° |
| 2026-05-04 21:31 | 40.41034 | 32.09878 | 26637 ft | 412 kts | 62° |
| 2026-05-04 21:31 | 40.42176 | 32.13330 | 26386 ft | 413 kts | 62° |
| 2026-05-04 21:31 | 40.43322 | 32.16790 | 26127 ft | 414 kts | 62° |
| 2026-05-04 21:32 | 40.44471 | 32.20261 | 25876 ft | 415 kts | 62° |
| 2026-05-04 21:32 | 40.45618 | 32.23747 | 25631 ft | 417 kts | 63° |
| 2026-05-04 21:32 | 40.46763 | 32.27254 | 25382 ft | 418 kts | 63° |
| 2026-05-04 21:32 | 40.47906 | 32.30774 | 25136 ft | 420 kts | 63° |
| 2026-05-04 21:33 | 40.49045 | 32.34301 | 24892 ft | 420 kts | 63° |
| 2026-05-04 21:33 | 40.50190 | 32.37850 | 24682 ft | 424 kts | 65° |
| 2026-05-04 21:33 | 40.51346 | 32.41431 | 24446 ft | 426 kts | 65° |
| 2026-05-04 21:33 | 40.52505 | 32.45014 | 24201 ft | 426 kts | 65° |
| 2026-05-04 21:34 | 40.53669 | 32.48604 | 23962 ft | 427 kts | 66° |
| 2026-05-04 21:34 | 40.54836 | 32.52206 | 23727 ft | 428 kts | 66° |
| 2026-05-04 21:34 | 40.55999 | 32.55806 | 23358 ft | 426 kts | 66° |
| 2026-05-04 21:34 | 40.57148 | 32.59370 | 22592 ft | 421 kts | 66° |
| 2026-05-04 21:35 | 40.58279 | 32.62890 | 21890 ft | 415 kts | 67° |
| 2026-05-04 21:35 | 40.59393 | 32.66362 | 21197 ft | 409 kts | 67° |
| 2026-05-04 21:35 | 40.60495 | 32.69794 | 20516 ft | 404 kts | 68° |
| 2026-05-04 21:35 | 40.61581 | 32.73185 | 19842 ft | 400 kts | 68° |
| 2026-05-04 21:36 | 40.62657 | 32.76545 | 19177 ft | 397 kts | 68° |
| 2026-05-04 21:36 | 40.63727 | 32.79884 | 18522 ft | 394 kts | 68° |
| 2026-05-04 21:36 | 40.64789 | 32.83204 | 17842 ft | 392 kts | 68° |
| 2026-05-04 21:36 | 40.65840 | 32.86496 | 17226 ft | 389 kts | 68° |
| 2026-05-04 21:37 | 40.66880 | 32.89768 | 16632 ft | 385 kts | 68° |
| 2026-05-04 21:37 | 40.67908 | 32.93004 | 16054 ft | 381 kts | 68° |
| 2026-05-04 21:37 | 40.68924 | 32.96205 | 15491 ft | 377 kts | 68° |
| 2026-05-04 21:37 | 40.69925 | 32.99368 | 14932 ft | 372 kts | 68° |
| 2026-05-04 21:38 | 40.70917 | 33.02501 | 14385 ft | 368 kts | 68° |
| 2026-05-04 21:38 | 40.71888 | 33.05574 | 13825 ft | 365 kts | 68° |
| 2026-05-04 21:38 | 40.72857 | 33.08645 | 13215 ft | 362 kts | 68° |
| 2026-05-04 21:38 | 40.73818 | 33.11690 | 12642 ft | 358 kts | 68° |
| 2026-05-04 21:39 | 40.74712 | 33.14802 | 12435 ft | 370 kts | 77° |
| 2026-05-04 21:39 | 40.74751 | 33.18184 | 12453 ft | 374 kts | 102° |
| 2026-05-04 21:39 | 40.73756 | 33.21349 | 11878 ft | 376 kts | 123° |
| 2026-05-04 21:39 | 40.71872 | 33.23751 | 10835 ft | 384 kts | 150° |
| 2026-05-04 21:40 | 40.69381 | 33.24690 | 10770 ft | 364 kts | 177° |
| 2026-05-04 21:40 | 40.66972 | 33.24191 | 10904 ft | 340 kts | 194° |
| 2026-05-04 21:40 | 40.64758 | 33.23372 | 10941 ft | 322 kts | 194° |
| 2026-05-04 21:40 | 40.62653 | 33.22588 | 10943 ft | 307 kts | 194° |
| 2026-05-04 21:41 | 40.60627 | 33.21940 | 10849 ft | 295 kts | 186° |
| 2026-05-04 21:41 | 40.58595 | 33.21633 | 10607 ft | 291 kts | 185° |
| 2026-05-04 21:41 | 40.56587 | 33.21352 | 10469 ft | 290 kts | 185° |
| 2026-05-04 21:41 | 40.54583 | 33.21079 | 10339 ft | 289 kts | 184° |
| 2026-05-04 21:42 | 40.52586 | 33.20808 | 10204 ft | 288 kts | 184° |
| 2026-05-04 21:42 | 40.50600 | 33.20535 | 10079 ft | 283 kts | 184° |
| 2026-05-04 21:42 | 40.48665 | 33.20268 | 9862 ft | 278 kts | 185° |
| 2026-05-04 21:42 | 40.46724 | 33.20001 | 9375 ft | 284 kts | 184° |
| 2026-05-04 21:43 | 40.44741 | 33.19734 | 8840 ft | 289 kts | 184° |
| 2026-05-04 21:43 | 40.42738 | 33.19463 | 8303 ft | 287 kts | 185° |
| 2026-05-04 21:43 | 40.40760 | 33.19193 | 7673 ft | 286 kts | 185° |
| 2026-05-04 21:43 | 40.38785 | 33.18921 | 7096 ft | 284 kts | 186° |
| 2026-05-04 21:44 | 40.36878 | 33.18659 | 6948 ft | 266 kts | 186° |
| 2026-05-04 21:44 | 40.35097 | 33.18415 | 6810 ft | 250 kts | 186° |
| 2026-05-04 21:44 | 40.33418 | 33.18185 | 6685 ft | 234 kts | 186° |
| 2026-05-04 21:44 | 40.31856 | 33.17971 | 6562 ft | 218 kts | 186° |
| 2026-05-04 21:45 | 40.30393 | 33.17761 | 6426 ft | 204 kts | 191° |
| 2026-05-04 21:45 | 40.29092 | 33.17166 | 6192 ft | 195 kts | 213° |
| 2026-05-04 21:45 | 40.27982 | 33.16144 | 5784 ft | 195 kts | 218° |
| 2026-05-04 21:45 | 40.26955 | 33.15156 | 5707 ft | 177 kts | 218° |
| 2026-05-04 21:46 | 40.25978 | 33.14217 | 5720 ft | 165 kts | 218° |
| 2026-05-04 21:46 | 40.25079 | 33.13354 | 5707 ft | 160 kts | 218° |
| 2026-05-04 21:46 | 40.24178 | 33.12490 | 5706 ft | 158 kts | 218° |
| 2026-05-04 21:46 | 40.23305 | 33.11654 | 5703 ft | 157 kts | 218° |
| 2026-05-04 21:47 | 40.22424 | 33.10809 | 5589 ft | 156 kts | 218° |
| 2026-05-04 21:47 | 40.21550 | 33.09973 | 5414 ft | 155 kts | 218° |
| 2026-05-04 21:47 | 40.20685 | 33.09145 | 5218 ft | 153 kts | 218° |
| 2026-05-04 21:47 | 40.19832 | 33.08329 | 5014 ft | 151 kts | 218° |
| 2026-05-04 21:48 | 40.18991 | 33.07524 | 4793 ft | 149 kts | 218° |
| 2026-05-04 21:48 | 40.18160 | 33.06730 | 4574 ft | 147 kts | 218° |
| 2026-05-04 21:48 | 40.17339 | 33.05946 | 4345 ft | 146 kts | 218° |
| 2026-05-04 21:48 | 40.16523 | 33.05166 | 4122 ft | 145 kts | 217° |
| 2026-05-04 21:49 | 40.15702 | 33.04382 | 3952 ft | 144 kts | 218° |
| 2026-05-04 21:49 | 40.14897 | 33.03613 | 3744 ft | 143 kts | 217° |
| 2026-05-04 21:49 | 40.14106 | 33.02858 | 3543 ft | 142 kts | 217° |
| 2026-05-04 21:49 | 40.13312 | 33.02099 | 3353 ft | 142 kts | 216° |
| 2026-05-04 21:50 | 40.12517 | 33.01347 | 3179 ft | 139 kts | 217° |
| 2026-05-04 21:50 | 40.11874 | 33.00728 | 3145 ft | 77 kts | 216° |
| 2026-05-04 21:50 | 40.11681 | 33.00541 | 3140 ft | 8 kts | 216° |
| 2026-05-04 21:50 | 40.11574 | 33.00434 | 3137 ft | 31 kts | 217° |
| 2026-05-04 21:51 | 40.11512 | 33.00270 | 3134 ft | 19 kts | 298° |
| 2026-05-04 21:51 | 40.11594 | 33.00128 | 3134 ft | 21 kts | 307° |
| 2026-05-04 21:51 | 40.11658 | 33.00018 | 3126 ft | 0 kts | 309° |
| 2026-05-04 21:52 | 40.11664 | 33.00008 | 3123 ft | 4 kts | 309° |
| 2026-05-04 21:52 | 40.11695 | 32.99956 | 3123 ft | 10 kts | 307° |
| 2026-05-04 21:52 | 40.11738 | 32.99881 | 3119 ft | 10 kts | 306° |
| 2026-05-04 21:52 | 40.11759 | 32.99843 | 3116 ft | 4 kts | 306° |
| 2026-05-04 21:53 | 40.11790 | 32.99786 | 3113 ft | 11 kts | 302° |
| 2026-05-04 21:53 | 40.11792 | 32.99679 | 3113 ft | 13 kts | 255° |
| 2026-05-04 21:53 | 40.11784 | 32.99550 | 3113 ft | 15 kts | 267° |
| 2026-05-04 21:53 | 40.11773 | 32.99425 | 3113 ft | 13 kts | 259° |
| 2026-05-04 21:54 | 40.11750 | 32.99311 | 3113 ft | 14 kts | 252° |
| 2026-05-04 21:54 | 40.11711 | 32.99191 | 3113 ft | 15 kts | 244° |
| 2026-05-04 21:54 | 40.11661 | 32.99075 | 3113 ft | 12 kts | 236° |
| 2026-05-04 21:54 | 40.11608 | 32.98985 | 3113 ft | 12 kts | 228° |
| 2026-05-04 21:55 | 40.11553 | 32.98910 | 3113 ft | 12 kts | 224° |
| 2026-05-04 21:55 | 40.11517 | 32.98867 | 3113 ft | 7 kts | 219° |
| 2026-05-04 21:55 | 40.11471 | 32.98820 | 3113 ft | 10 kts | 216° |
| 2026-05-04 21:55 | 40.11412 | 32.98762 | 3113 ft | 7 kts | 216° |
| 2026-05-04 21:56 | 40.11410 | 32.98761 | 3113 ft | 0 kts | 216° |
| 2026-05-04 21:56 | 40.11408 | 32.98759 | 3113 ft | 0 kts | 216° |
| 2026-05-04 21:56 | 40.11404 | 32.98758 | 3113 ft | 1 kts | 199° |
| 2026-05-04 21:57 | 40.11389 | 32.98761 | 3113 ft | 3 kts | 162° |
| 2026-05-04 21:57 | 40.11367 | 32.98785 | 3113 ft | 4 kts | 132° |
| 2026-05-04 21:57 | 40.11359 | 32.98798 | 3113 ft | 1 kts | 128° |
| 2026-05-04 21:57 | 40.11354 | 32.98806 | 3113 ft | 0 kts | 127° |